createdAt,value
2022-11-18T00:18:59.843Z,98691.91
2022-11-18T00:21:27.987Z,98685.03
2022-11-18T00:23:58.072Z,98704.84
2022-11-18T00:26:26.437Z,98702.00
2022-11-18T00:28:56.429Z,98706.03
2022-11-18T00:31:30.494Z,98708.53
2022-11-18T00:33:59.056Z,98643.72
2022-11-18T00:36:28.043Z,98718.44
2022-11-18T00:38:57.544Z,98679.69
2022-11-18T00:41:45.749Z,98663.88
2022-11-18T00:44:17.310Z,98640.03
2022-11-18T00:46:46.257Z,98712.53
2022-11-18T00:49:24.463Z,98651.16
2022-11-18T00:52:03.981Z,98682.63
2022-11-18T00:54:38.771Z,98697.47
2022-11-18T00:57:19.049Z,98722.94
2022-11-18T01:00:01.811Z,98687.50
2022-11-18T01:02:47.014Z,98715.50
2022-11-18T01:05:29.528Z,98701.72
2022-11-18T01:08:33.786Z,98613.50
2022-11-18T01:11:19.183Z,98749.88
2022-11-18T01:13:54.348Z,98748.13
2022-11-18T01:16:35.429Z,98400.66
2022-11-18T01:22:42.284Z,98720.13
2022-11-18T01:25:14.220Z,98717.97
2022-11-18T01:27:46.194Z,98681.34
2022-11-18T01:30:25.671Z,98744.19
2022-11-18T01:33:00.004Z,98751.00
2022-11-18T01:35:28.270Z,98764.50
2022-11-18T01:37:59.296Z,98704.41
2022-11-18T01:40:33.431Z,98766.94
2022-11-18T01:43:05.209Z,98770.81
2022-11-18T01:45:38.762Z,98760.53
2022-11-18T01:48:12.735Z,98763.00
2022-11-18T01:50:47.820Z,98752.78
2022-11-18T01:53:23.438Z,98763.06
2022-11-18T01:56:01.342Z,98722.44
2022-11-18T01:58:36.981Z,98748.28
2022-11-18T02:01:11.005Z,98730.59
2022-11-18T02:03:48.205Z,98740.03
2022-11-18T02:10:27.936Z,98782.53
2022-11-18T02:13:23.943Z,98787.94
2022-11-18T02:16:09.108Z,98775.38
2022-11-18T02:18:59.912Z,98776.84
2022-11-18T02:29:27.636Z,98790.72
2022-11-18T02:32:02.285Z,98799.69
2022-11-18T02:34:42.535Z,98804.72
2022-11-18T02:37:19.160Z,98802.06
2022-11-18T02:39:54.480Z,98802.91
2022-11-18T02:42:25.988Z,98806.94
2022-11-18T02:45:02.732Z,98760.41
2022-11-18T02:47:32.842Z,98811.63
2022-11-18T02:50:05.025Z,98780.13
2022-11-18T02:52:38.825Z,98807.97
2022-11-18T02:55:10.036Z,98802.28
2022-11-18T02:57:40.034Z,98812.59
2022-11-18T03:00:12.445Z,98769.19
2022-11-18T03:09:19.019Z,98823.91
2022-11-18T03:12:04.569Z,98770.13
2022-11-18T03:15:18.803Z,98807.44
2022-11-18T03:19:05.094Z,98823.91
2022-11-18T03:21:53.170Z,98816.06
2022-11-18T03:24:34.565Z,98765.38
2022-11-18T03:27:26.432Z,98794.03
2022-11-18T03:30:11.518Z,98840.28
2022-11-18T03:33:27.734Z,98719.44
2022-11-18T03:36:12.371Z,98838.56
2022-11-18T03:38:46.685Z,98797.38
2022-11-18T03:41:20.401Z,98785.13
2022-11-18T03:43:56.353Z,98765.53
2022-11-18T03:46:40.117Z,98483.50
2022-11-18T03:49:23.668Z,98758.00
2022-11-18T03:52:10.873Z,98849.94
2022-11-18T03:54:48.199Z,98871.47
2022-11-18T03:57:22.815Z,98866.25
2022-11-18T03:59:58.335Z,98810.88
2022-11-18T04:02:33.239Z,98631.97
2022-11-18T04:05:12.281Z,98641.22
2022-11-18T04:07:53.715Z,98822.34
2022-11-18T04:10:30.489Z,98882.63
2022-11-18T04:13:09.161Z,98540.22
2022-11-18T04:15:45.547Z,98876.81
2022-11-18T04:18:23.113Z,98635.53
2022-11-18T04:20:52.000Z,98912.41
2022-11-18T04:23:30.437Z,98782.44
2022-11-18T04:26:04.356Z,98909.09
2022-11-18T04:28:44.335Z,98908.94
2022-11-18T04:31:12.542Z,98913.03
2022-11-18T04:33:46.965Z,98663.00
2022-11-18T04:36:17.443Z,98916.19
2022-11-18T04:39:11.035Z,98831.94
2022-11-18T04:42:09.199Z,98821.16
2022-11-18T04:45:03.174Z,98918.94
2022-11-18T04:48:03.876Z,98924.38
2022-11-18T04:50:32.297Z,98663.13
2022-11-18T04:53:00.439Z,98931.81
2022-11-18T04:55:30.217Z,98775.09
2022-11-18T04:58:10.121Z,98802.69
2022-11-18T05:00:41.933Z,98908.75
2022-11-18T05:07:48.273Z,98931.00
2022-11-18T05:13:32.208Z,98887.59
2022-11-18T05:16:02.680Z,98931.63
2022-11-18T05:18:31.062Z,98885.66
2022-11-18T05:20:58.888Z,98911.59
2022-11-18T05:23:28.134Z,98920.78
2022-11-18T05:26:01.284Z,98896.22
2022-11-18T05:28:41.422Z,98921.13
2022-11-18T05:31:13.703Z,98919.75
2022-11-18T05:33:42.853Z,98955.19
2022-11-18T05:36:13.230Z,98936.22
2022-11-18T05:42:27.142Z,98970.56
2022-11-18T05:44:58.735Z,98880.78
2022-11-18T05:47:30.721Z,98951.09
2022-11-18T05:50:00.193Z,98961.31
2022-11-18T05:52:34.010Z,98962.88
2022-11-18T05:55:05.446Z,98978.59
2022-11-18T05:57:37.209Z,98842.88
2022-11-18T06:03:16.269Z,98963.16
2022-11-18T06:05:51.259Z,98923.91
2022-11-18T06:08:21.546Z,99000.31
2022-11-18T06:10:56.513Z,98998.69
2022-11-18T06:13:31.239Z,99004.53
2022-11-18T06:16:02.458Z,98927.75
2022-11-18T06:18:41.428Z,99005.66
2022-11-18T06:21:16.215Z,98916.50
2022-11-18T06:23:45.124Z,98915.69
2022-11-18T06:26:33.579Z,99020.91
2022-11-18T06:32:44.561Z,99011.16
2022-11-18T06:39:29.430Z,99013.81
2022-11-18T06:42:00.659Z,99036.53
2022-11-18T06:44:27.802Z,98989.16
2022-11-18T06:47:02.806Z,99037.56
2022-11-18T06:49:32.294Z,99026.28
2022-11-18T06:52:00.446Z,98994.13
2022-11-18T06:54:28.678Z,98963.38
2022-11-18T06:56:56.757Z,98934.53
2022-11-18T06:59:25.018Z,99059.06
2022-11-18T07:01:54.097Z,99040.97
2022-11-18T07:04:22.317Z,99027.47
2022-11-18T07:06:52.342Z,99007.41
2022-11-18T07:09:22.113Z,99043.78
2022-11-18T07:11:50.222Z,99071.81
2022-11-18T07:14:23.915Z,99056.22
2022-11-18T07:16:52.040Z,99069.41
2022-11-18T07:19:32.869Z,99023.13
2022-11-18T07:22:04.891Z,99063.69
2022-11-18T07:24:32.905Z,99097.59
2022-11-18T07:27:01.266Z,99107.72
2022-11-18T07:29:29.375Z,99078.59
2022-11-18T07:31:57.409Z,99052.25
2022-11-18T07:34:25.362Z,99066.00
2022-11-18T07:36:53.301Z,99050.16
2022-11-18T07:39:25.523Z,99125.59
2022-11-18T07:41:53.600Z,99125.34
2022-11-18T07:44:21.559Z,99118.25
2022-11-18T07:46:49.737Z,99123.22
2022-11-18T07:49:19.254Z,99120.56
2022-11-18T07:51:47.494Z,99095.13
2022-11-18T07:54:16.953Z,99091.66
2022-11-18T07:56:46.645Z,99106.28
2022-11-18T07:59:14.929Z,99103.72
2022-11-18T08:01:47.134Z,99126.81
2022-11-18T08:04:15.244Z,99133.38
2022-11-18T08:06:43.051Z,99149.50
2022-11-18T08:09:11.123Z,99153.47
2022-11-18T08:11:40.739Z,99161.78
2022-11-18T08:14:10.058Z,99157.31
2022-11-18T08:16:37.778Z,99159.81
2022-11-18T08:19:05.554Z,99164.88
2022-11-18T08:21:33.254Z,99162.22
2022-11-18T08:24:01.013Z,99172.53
2022-11-18T08:26:29.444Z,99170.88
2022-11-18T08:28:58.628Z,99173.47
2022-11-18T08:31:29.093Z,99178.44
2022-11-18T08:33:57.673Z,99169.03
2022-11-18T08:36:28.050Z,99182.66
2022-11-18T08:38:56.515Z,99173.16
2022-11-18T08:41:30.372Z,99187.53
2022-11-18T08:43:58.359Z,99191.16
2022-11-18T08:46:27.431Z,99053.28
2022-11-18T08:48:55.128Z,99200.75
2022-11-18T08:51:23.088Z,99202.31
2022-11-18T08:53:50.809Z,99165.88
2022-11-18T08:56:21.344Z,99181.13
2022-11-18T08:58:49.390Z,99206.25
2022-11-18T09:01:17.748Z,99204.69
2022-11-18T09:03:47.189Z,99210.78
2022-11-18T09:06:16.780Z,99219.72
2022-11-18T09:08:45.108Z,99195.66
2022-11-18T09:11:15.205Z,99180.00
2022-11-18T09:16:36.971Z,99222.41
2022-11-18T09:19:31.680Z,99220.19
2022-11-18T09:21:53.902Z,99225.59
2022-11-18T09:24:21.931Z,99227.72
2022-11-18T09:26:50.154Z,99228.59
2022-11-18T09:29:17.977Z,99189.69
2022-11-18T09:31:46.005Z,99222.78
2022-11-18T09:34:15.472Z,99234.16
2022-11-18T09:36:43.768Z,99230.41
2022-11-18T09:39:11.549Z,99236.56
2022-11-18T09:41:46.035Z,99207.84
2022-11-18T09:44:34.198Z,99240.13
2022-11-18T09:47:12.637Z,99241.25
2022-11-18T09:49:44.174Z,99232.81
2022-11-18T09:52:19.085Z,99246.81
2022-11-18T09:54:47.105Z,99253.38
2022-11-18T09:57:17.608Z,99197.72
2022-11-18T09:59:45.884Z,99260.00
2022-11-18T10:02:29.852Z,99259.06
2022-11-18T10:05:08.839Z,99193.31
2022-11-18T10:07:44.335Z,99264.19
2022-11-18T10:10:18.045Z,99259.28
2022-11-18T10:12:51.238Z,99256.03
2022-11-18T10:15:25.949Z,99260.34
2022-11-18T10:18:02.686Z,99256.22
2022-11-18T10:20:44.130Z,99256.13
2022-11-18T10:23:17.991Z,99253.44
2022-11-18T10:25:45.757Z,99198.25
2022-11-18T10:28:22.682Z,99257.50
2022-11-18T10:30:50.647Z,99258.44
2022-11-18T10:33:25.309Z,99235.72
2022-11-18T10:36:10.250Z,99260.34
2022-11-18T10:38:38.005Z,99270.50
2022-11-18T10:41:10.237Z,99273.19
2022-11-18T10:43:49.647Z,99281.97
2022-11-18T10:46:20.922Z,99266.72
2022-11-18T10:48:48.667Z,99277.06
2022-11-18T10:51:25.550Z,99269.69
2022-11-18T10:53:53.300Z,99273.56
2022-11-18T10:56:21.111Z,99266.00
2022-11-18T10:58:52.615Z,99285.72
2022-11-18T11:01:23.947Z,99287.63
2022-11-18T11:04:00.124Z,99265.69
2022-11-18T11:06:34.176Z,99281.38
2022-11-18T11:09:05.673Z,99285.78
2022-11-18T11:11:35.616Z,99289.06
2022-11-18T11:14:14.122Z,99290.19
2022-11-18T11:16:50.283Z,99296.25
2022-11-18T11:19:22.788Z,99290.59
2022-11-18T11:21:52.400Z,99286.78
2022-11-18T11:24:23.356Z,99288.09
2022-11-18T11:30:24.375Z,99288.75
2022-11-18T11:33:10.024Z,99286.88
2022-11-18T11:35:48.122Z,99287.91
2022-11-18T11:38:22.964Z,99284.53
2022-11-18T11:41:02.040Z,99288.69
2022-11-18T11:43:39.572Z,99276.03
2022-11-18T11:46:29.054Z,99286.59
2022-11-18T11:49:11.508Z,99298.88
2022-11-18T11:51:46.770Z,99296.41
2022-11-18T11:54:25.279Z,99299.28
2022-11-18T11:56:58.906Z,99300.28
2022-11-18T11:59:32.763Z,99303.00
2022-11-18T12:02:24.288Z,99305.41
2022-11-18T12:04:55.036Z,99303.31
2022-11-18T12:07:26.975Z,99305.66
2022-11-18T12:10:10.096Z,99302.28
2022-11-18T12:12:46.835Z,99301.81
2022-11-18T12:15:27.407Z,99304.63
2022-11-18T12:18:04.901Z,99302.00
2022-11-18T12:20:38.438Z,99259.06
2022-11-18T12:23:21.082Z,99308.16
2022-11-18T12:26:05.906Z,99307.69
2022-11-18T12:28:37.163Z,99301.47
2022-11-18T12:31:41.917Z,99304.84
2022-11-18T12:34:29.825Z,99312.53
2022-11-18T12:36:57.932Z,99312.09
2022-11-18T12:39:50.215Z,99311.25
2022-11-18T12:43:01.800Z,99326.81
2022-11-18T12:45:57.568Z,99321.31
2022-11-18T12:48:43.457Z,99322.03
2022-11-18T12:51:42.383Z,99324.09
2022-11-18T12:54:35.530Z,99325.53
2022-11-18T12:57:12.056Z,99319.75
2022-11-18T12:59:41.251Z,99316.44
2022-11-18T13:02:23.384Z,99321.78
2022-11-18T13:05:05.852Z,99324.63
2022-11-18T13:08:01.649Z,99298.16
2022-11-18T13:10:32.639Z,99324.22
2022-11-18T13:13:00.815Z,99326.25
2022-11-18T13:15:47.832Z,99326.97
2022-11-18T13:18:18.184Z,99320.84
2022-11-18T13:20:57.454Z,99322.63
2022-11-18T13:23:46.066Z,99324.66
2022-11-18T13:26:19.317Z,99315.03
2022-11-18T13:29:01.270Z,99330.63
2022-11-18T13:31:37.337Z,99335.47
2022-11-18T13:34:13.570Z,99329.66
2022-11-18T13:36:45.243Z,99337.47
2022-11-18T13:39:21.887Z,99336.50
2022-11-18T13:42:00.549Z,99331.28
2022-11-18T13:44:30.334Z,99333.16
2022-11-18T13:47:05.876Z,99335.50
2022-11-18T13:49:50.549Z,99335.94
2022-11-18T13:52:24.643Z,99339.69
2022-11-18T13:54:55.062Z,99344.28
2022-11-18T13:57:26.038Z,99345.22
2022-11-18T13:59:55.409Z,99325.38
2022-11-18T14:02:24.617Z,99343.34
2022-11-18T14:04:56.941Z,99238.31
2022-11-18T14:07:31.874Z,99362.72
2022-11-18T14:10:03.557Z,99255.03
2022-11-18T14:12:33.245Z,99358.50
2022-11-18T14:15:16.704Z,99348.50
2022-11-18T14:17:54.883Z,99345.63
2022-11-18T14:20:23.286Z,99357.75
2022-11-18T14:22:55.595Z,99348.22
2022-11-18T14:25:28.288Z,99251.16
2022-11-18T14:27:57.682Z,99374.69
2022-11-18T14:30:38.286Z,99365.56
2022-11-18T14:33:28.716Z,99378.41
2022-11-18T14:35:59.121Z,99381.22
2022-11-18T14:41:44.747Z,99374.38
2022-11-18T14:44:14.274Z,99389.13
2022-11-18T14:46:44.499Z,99286.00
2022-11-18T14:49:17.994Z,99397.25
2022-11-18T14:51:46.849Z,99355.94
2022-11-18T14:54:20.836Z,99337.09
2022-11-18T14:56:55.452Z,99233.72
2022-11-18T14:59:23.510Z,99349.41
2022-11-18T15:01:51.467Z,99237.75
2022-11-18T15:04:22.065Z,99385.22
2022-11-18T15:06:50.381Z,99247.56
2022-11-18T15:09:18.304Z,99299.75
2022-11-18T15:11:46.159Z,99237.31
2022-11-18T15:14:14.011Z,99217.56
2022-11-18T15:16:41.845Z,99410.03
2022-11-18T15:19:15.275Z,99260.72
2022-11-18T15:21:45.338Z,99236.22
2022-11-18T15:24:13.306Z,99409.00
2022-11-18T15:26:44.499Z,99364.41
2022-11-18T15:29:17.804Z,99228.34
2022-11-18T15:31:46.198Z,99368.19
2022-11-18T15:34:16.089Z,99416.25
2022-11-18T15:36:45.848Z,99423.63
2022-11-18T15:39:14.342Z,99278.00
2022-11-18T15:41:43.737Z,99290.97
2022-11-18T15:44:12.137Z,99388.69
2022-11-18T15:46:40.589Z,99440.19
2022-11-18T15:49:13.407Z,99351.78
2022-11-18T15:51:41.955Z,99334.44
2022-11-18T15:54:12.393Z,99385.63
2022-11-18T15:56:41.681Z,99407.09
2022-11-18T15:59:12.752Z,99252.84
2022-11-18T16:01:42.742Z,99330.16
2022-11-18T16:04:12.593Z,99317.38
2022-11-18T16:06:43.455Z,99390.94
2022-11-18T16:09:13.657Z,99235.78
2022-11-18T16:11:59.710Z,99321.78
2022-11-18T16:14:29.133Z,99360.00
2022-11-18T16:16:57.880Z,99301.34
2022-11-18T16:19:29.741Z,99263.03
2022-11-18T16:21:58.121Z,99333.91
2022-11-18T16:24:29.607Z,99250.50
2022-11-18T16:26:57.739Z,99292.84
2022-11-18T16:29:26.205Z,99449.66
2022-11-18T16:31:54.251Z,99454.34
2022-11-18T16:34:24.221Z,99464.66
2022-11-18T16:36:54.276Z,99463.00
2022-11-18T16:39:25.190Z,99371.16
2022-11-18T16:42:06.424Z,99463.09
2022-11-18T16:44:35.375Z,99343.88
2022-11-18T16:47:07.567Z,99331.44
2022-11-18T16:49:38.664Z,99451.78
2022-11-18T16:52:08.471Z,99474.97
2022-11-18T16:54:42.872Z,99405.06
2022-11-18T16:57:14.393Z,99476.56
2022-11-18T16:59:42.342Z,99476.56
2022-11-18T17:02:13.447Z,99479.16
2022-11-18T17:04:41.447Z,99472.41
2022-11-18T17:07:09.635Z,99428.59
2022-11-18T17:09:37.824Z,99381.47
2022-11-18T17:12:07.088Z,99199.03
2022-11-18T17:14:38.699Z,99318.88
2022-11-18T17:17:07.277Z,99469.59
2022-11-18T17:19:35.222Z,99422.44
2022-11-18T17:22:03.518Z,99486.75
2022-11-18T17:24:32.057Z,99297.91
2022-11-18T17:27:00.119Z,99350.13
2022-11-18T17:29:28.331Z,99296.91
2022-11-18T17:31:59.764Z,99307.59
2022-11-18T17:34:27.788Z,99206.31
2022-11-18T17:37:00.206Z,99506.53
2022-11-18T17:39:31.924Z,99394.88
2022-11-18T17:42:15.172Z,99486.31
2022-11-18T17:44:44.147Z,99427.34
2022-11-18T17:47:13.617Z,99480.75
2022-11-18T17:49:41.640Z,99426.41
2022-11-18T17:52:09.886Z,99375.03
2022-11-18T17:54:37.961Z,99312.47
2022-11-18T17:57:05.958Z,99436.75
2022-11-18T17:59:33.874Z,99524.72
2022-11-18T18:02:01.926Z,99532.31
2022-11-18T18:04:32.045Z,99551.09
2022-11-18T18:07:00.109Z,99544.97
2022-11-18T18:09:31.014Z,99400.22
2022-11-18T18:12:00.911Z,99300.44
2022-11-18T18:14:28.126Z,99557.84
2022-11-18T18:16:56.020Z,99433.78
2022-11-18T18:19:25.061Z,99348.94
2022-11-18T18:21:54.375Z,99553.78
2022-11-18T18:24:22.812Z,99517.31
2022-11-18T18:26:51.185Z,99454.66
2022-11-18T18:29:22.341Z,99432.69
2022-11-18T18:31:50.509Z,99430.50
2022-11-18T18:34:19.459Z,99549.97
2022-11-18T18:36:48.000Z,99383.81
2022-11-18T18:39:17.508Z,99558.19
2022-11-18T18:41:45.586Z,99558.34
2022-11-18T18:44:18.300Z,99559.25
2022-11-18T18:46:45.854Z,99560.06
2022-11-18T18:49:15.774Z,99564.38
2022-11-18T18:51:46.041Z,99525.56
2022-11-18T18:54:16.061Z,99462.06
2022-11-18T18:56:46.147Z,99570.47
2022-11-18T18:59:14.255Z,99568.94
2022-11-18T19:01:44.150Z,99571.69
2022-11-18T19:04:14.142Z,99367.84
2022-11-18T19:06:59.362Z,99400.53
2022-11-18T19:09:30.461Z,99400.13
2022-11-18T19:12:18.578Z,99448.81
2022-11-18T19:14:46.966Z,99570.56
2022-11-18T19:17:15.481Z,99575.72
2022-11-18T19:20:04.083Z,99497.66
2022-11-18T19:22:35.121Z,99441.50
2022-11-18T19:25:03.310Z,99349.31
2022-11-18T19:27:33.835Z,99311.03
2022-11-18T19:30:02.266Z,99309.06
2022-11-18T19:32:31.715Z,99565.50
2022-11-18T19:34:59.786Z,99577.94
2022-11-18T19:37:28.020Z,99581.25
2022-11-18T19:39:55.993Z,99330.53
2022-11-18T19:42:26.498Z,99582.09
2022-11-18T19:44:56.313Z,99207.09
2022-11-18T19:47:24.391Z,99497.88
2022-11-18T19:49:52.388Z,99490.44
2022-11-18T19:52:20.350Z,99592.41
2022-11-18T19:54:48.272Z,99591.91
2022-11-18T19:57:16.868Z,99596.47
2022-11-18T19:59:45.878Z,99575.72
2022-11-18T20:02:15.664Z,99372.44
2022-11-18T20:05:04.399Z,99557.84
2022-11-18T20:07:32.431Z,99406.75
2022-11-18T20:10:00.320Z,99552.91
2022-11-18T20:12:29.545Z,99607.81
2022-11-18T20:14:57.343Z,99496.75
2022-11-18T20:17:26.687Z,99604.09
2022-11-18T20:19:54.558Z,99485.41
2022-11-18T20:22:22.414Z,99550.44
2022-11-18T20:24:50.330Z,99616.34
2022-11-18T20:27:18.785Z,99606.88
2022-11-18T20:29:47.080Z,99137.41
2022-11-18T20:32:14.881Z,99579.00
2022-11-18T20:34:44.142Z,99591.22
2022-11-18T20:37:12.901Z,99532.88
2022-11-18T20:39:40.720Z,99415.34
2022-11-18T20:42:26.178Z,99374.13
2022-11-18T20:44:54.152Z,99611.06
2022-11-18T20:47:22.177Z,99345.63
2022-11-18T20:49:51.763Z,99377.03
2022-11-18T20:52:19.671Z,99625.31
2022-11-18T20:54:47.562Z,99245.94
2022-11-18T20:57:17.332Z,99501.72
2022-11-18T20:59:45.339Z,99626.03
2022-11-18T21:02:13.304Z,99625.31
2022-11-18T21:04:41.126Z,99625.31
2022-11-18T21:07:10.572Z,99504.75
2022-11-18T21:09:38.456Z,99639.03
2022-11-18T21:12:06.626Z,99550.53
2022-11-18T21:14:33.718Z,99342.19
2022-11-18T21:17:01.650Z,99339.09
2022-11-18T21:19:30.453Z,99533.88
2022-11-18T21:21:57.619Z,99635.38
2022-11-18T21:24:29.650Z,99458.78
2022-11-18T21:26:58.708Z,99547.34
2022-11-18T21:29:28.282Z,99644.78
2022-11-18T21:31:56.613Z,99670.56
2022-11-18T21:34:25.262Z,99591.50
2022-11-18T21:36:55.189Z,99514.06
2022-11-18T21:39:25.384Z,99237.41
2022-11-18T21:41:57.342Z,99337.44
2022-11-18T21:44:27.948Z,99651.38
2022-11-18T21:46:56.773Z,99655.69
2022-11-18T21:49:24.916Z,99485.13
2022-11-18T21:51:52.866Z,99447.31
2022-11-18T21:54:20.712Z,99658.34
2022-11-18T21:56:49.226Z,99661.84
2022-11-18T21:59:19.093Z,99658.34
2022-11-18T22:01:47.336Z,99563.78
2022-11-18T22:04:35.659Z,99530.63
2022-11-18T22:07:05.176Z,99662.97
2022-11-18T22:09:36.654Z,99663.34
2022-11-18T22:12:07.705Z,99671.13
2022-11-18T22:14:37.457Z,99670.97
2022-11-18T22:17:06.128Z,99670.84
2022-11-18T22:19:33.854Z,99670.72
2022-11-18T22:22:01.852Z,99644.69
2022-11-18T22:24:30.031Z,99635.75
2022-11-18T22:26:58.470Z,99390.22
2022-11-18T22:29:26.480Z,99634.53
2022-11-18T22:31:55.710Z,99662.81
2022-11-18T22:34:23.637Z,99184.66
2022-11-18T22:36:51.527Z,99654.94
2022-11-18T22:39:19.585Z,99658.25
2022-11-18T22:42:05.726Z,99567.34
2022-11-18T22:44:33.841Z,99662.38
2022-11-18T22:47:03.565Z,99661.38
2022-11-18T22:49:31.810Z,99655.84
2022-11-18T22:52:00.437Z,99565.53
2022-11-18T22:54:43.465Z,99663.81
2022-11-18T22:57:11.359Z,99432.63
2022-11-18T22:59:39.126Z,99659.41
2022-11-18T23:02:08.463Z,99529.06
2022-11-18T23:04:36.705Z,99663.59
2022-11-18T23:07:05.058Z,99655.97
2022-11-18T23:09:35.047Z,99498.44
2022-11-18T23:12:20.701Z,99105.97
2022-11-18T23:14:48.750Z,99663.44
2022-11-18T23:17:18.167Z,99569.19
2022-11-18T23:19:46.955Z,99683.91
2022-11-18T23:22:15.739Z,99680.50
2022-11-18T23:24:43.980Z,99677.16
2022-11-18T23:27:12.274Z,99681.63
2022-11-18T23:29:41.182Z,99243.53
2022-11-18T23:32:09.411Z,99675.09
2022-11-18T23:34:41.907Z,99678.28
2022-11-18T23:37:10.503Z,99389.19
2022-11-18T23:39:38.697Z,99485.50
2022-11-18T23:42:06.884Z,99341.38
2022-11-18T23:44:46.721Z,99671.31
2022-11-18T23:47:14.750Z,99612.50
2022-11-18T23:49:44.183Z,99481.22
2022-11-18T23:52:16.076Z,99433.56
2022-11-18T23:54:44.495Z,99336.31
2022-11-18T23:57:12.907Z,99668.59
2022-11-18T23:59:40.804Z,99662.88
